Decoded METAR's for Mozambique

 
 
Print Page

Back to Weather Page

 
 

Beira - Mozambique, FQBR

ADDS - TAFS form results

Aviation Digital Data Service (ADDS)

Output produced by TAFs form (0553 UTC 25 February 2018)
found at http://aviationweather.gov/adds/tafs/
 
METAR text: FQBR 250500Z /////KT 9999 FEW018 SCT030 26/24 Q1008
Conditions at: FQBR (BEIRA , MZ) observed 0500 UTC 25 February 2018
Temperature: 26.0°C (79°F)
Dewpoint: 24.0°C (75°F) [RH = 89%]
Pressure (altimeter): 29.76 inches Hg (1008.0 mb)
Winds: missing
Visibility: 6 or more miles (10+ km)
Ceiling: at least 12,000 feet AGL
Clouds: few clouds at 1800 feet AGL
scattered clouds at 3000 feet AGL
Weather: no significant weather observed at this time

Array
Chimoio - Mozambique, FQCH

ADDS - TAFS form results

Aviation Digital Data Service (ADDS)

Output produced by TAFs form (0553 UTC 25 February 2018)
found at http://aviationweather.gov/adds/tafs/
 
METAR text: FQCH 250500Z 33006KT 9999 FEW015 23/22 Q1014
Conditions at: FQCH (CHIMOIO , MZ) observed 0500 UTC 25 February 2018
Temperature: 23.0°C (73°F)
Dewpoint: 22.0°C (72°F) [RH = 94%]
Pressure (altimeter): 29.94 inches Hg (1014.0 mb)
Winds: from the NNW (330 degrees) at 7 MPH (6 knots; 3.1 m/s)
Visibility: 6 or more miles (10+ km)
Ceiling: at least 12,000 feet AGL
Clouds: few clouds at 1500 feet AGL
Weather: no significant weather observed at this time

Array
Inhambane - Mozambique, FQIN

ADDS - TAFS form results

Aviation Digital Data Service (ADDS)

Output produced by TAFs form (0553 UTC 25 February 2018)
found at http://aviationweather.gov/adds/tafs/
 
You entered "FQIN"

Sorry, either there are no data available for your request or you did not enter any valid ICAO airport abbreviations.

See stations.txt for a list of known METAR and TAF locations. Then go back to the ADDS METARs or TAFs page and try again
 
Please try again and, if problems persist, then send mail to ncep.awc.adds@noaa.gov
Array
Lichinga - Mozambique, FQLC

ADDS - TAFS form results

Aviation Digital Data Service (ADDS)

Output produced by TAFs form (0553 UTC 25 February 2018)
found at http://aviationweather.gov/adds/tafs/
 
METAR text: FQLC 250500Z 01003KT 9999 FEW020 BKN070 18/16 Q1018
Conditions at: FQLC (LICHINGA , MZ) observed 0500 UTC 25 February 2018
Temperature: 18.0°C (64°F)
Dewpoint: 16.0°C (61°F) [RH = 88%]
Pressure (altimeter): 30.06 inches Hg (1018.0 mb)
Winds: from the N (10 degrees) at 3 MPH (3 knots; 1.6 m/s)
Visibility: 6 or more miles (10+ km)
Ceiling: 7000 feet AGL
Clouds: few clouds at 2000 feet AGL
broken clouds at 7000 feet AGL
Weather: no significant weather observed at this time

Array
Maputo - Mozambique, FQMA

ADDS - TAFS form results

Aviation Digital Data Service (ADDS)

Output produced by TAFs form (0553 UTC 25 February 2018)
found at http://aviationweather.gov/adds/tafs/
 
METAR text: FQMA 250500Z 33003KT 9999 BKN025 BKN080 27/23 Q1007 NOSIG
Conditions at: FQMA (MAPUTO/MAVALANE , MZ) observed 0500 UTC 25 February 2018
Temperature: 27.0°C (81°F)
Dewpoint: 23.0°C (73°F) [RH = 79%]
Pressure (altimeter): 29.73 inches Hg (1007.0 mb)
Winds: from the NNW (330 degrees) at 3 MPH (3 knots; 1.6 m/s)
Visibility: 6 or more miles (10+ km)
Ceiling: 2500 feet AGL
Clouds: broken clouds at 2500 feet AGL
broken clouds at 8000 feet AGL
Weather: no significant weather observed at this time

Array
Nampula - Mozambique, FQNP

ADDS - TAFS form results

Aviation Digital Data Service (ADDS)

Output produced by TAFs form (0553 UTC 25 February 2018)
found at http://aviationweather.gov/adds/tafs/
 
METAR text: FQNP 250500Z /////KT 9999 FEW020 BKN/// 23/22 Q1011
Conditions at: FQNP (NAMPULA , MZ) observed 0500 UTC 25 February 2018
Temperature: 23.0°C (73°F)
Dewpoint: 22.0°C (72°F) [RH = 94%]
Pressure (altimeter): 29.85 inches Hg (1011.0 mb)
Winds: missing
Visibility: 6 or more miles (10+ km)
Ceiling: at least 12,000 feet AGL
Clouds: few clouds at 2000 feet AGL
Weather: no significant weather observed at this time

Array
Pemba - Mozambique, FQPB

ADDS - TAFS form results

Aviation Digital Data Service (ADDS)

Output produced by TAFs form (0553 UTC 25 February 2018)
found at http://aviationweather.gov/adds/tafs/
 
You entered "FQPB"

Sorry, either there are no data available for your request or you did not enter any valid ICAO airport abbreviations.

See stations.txt for a list of known METAR and TAF locations. Then go back to the ADDS METARs or TAFs page and try again
 
Please try again and, if problems persist, then send mail to ncep.awc.adds@noaa.gov
Array
Quelimane - Mozambique, FQQL

ADDS - TAFS form results

Aviation Digital Data Service (ADDS)

Output produced by TAFs form (0553 UTC 25 February 2018)
found at http://aviationweather.gov/adds/tafs/
 
METAR text: FQQL 250500Z 06005KT CAVOK 27/25 Q1009
Conditions at: FQQL (QUELIMANE , MZ) observed 0500 UTC 25 February 2018
Temperature: 27.0°C (81°F)
Dewpoint: 25.0°C (77°F) [RH = 89%]
Pressure (altimeter): 29.79 inches Hg (1009.0 mb)
Winds: from the ENE (60 degrees) at 6 MPH (5 knots; 2.6 m/s)
Visibility: 6 or more miles (10+ km)
Ceiling: ceiling and visibility are OK
Clouds: unknown
Weather: no significant weather observed at this time

Array
Tete - Mozambique, FQTT

ADDS - TAFS form results

Aviation Digital Data Service (ADDS)

Output produced by TAFs form (0553 UTC 25 February 2018)
found at http://aviationweather.gov/adds/tafs/
 
You entered "FQTT"

Sorry, either there are no data available for your request or you did not enter any valid ICAO airport abbreviations.

See stations.txt for a list of known METAR and TAF locations. Then go back to the ADDS METARs or TAFs page and try again
 
Please try again and, if problems persist, then send mail to ncep.awc.adds@noaa.gov
Array
Vilanculos - Mozambique, FQVL

ADDS - TAFS form results

Aviation Digital Data Service (ADDS)

Output produced by TAFs form (0553 UTC 25 February 2018)
found at http://aviationweather.gov/adds/tafs/
 
METAR text: FQVL 250500Z 04007KT 010V080 9999 FEW020 28/25 Q1009
Conditions at: FQVL (VILANCULOS , MZ) observed 0500 UTC 25 February 2018
Temperature: 28.0°C (82°F)
Dewpoint: 25.0°C (77°F) [RH = 84%]
Pressure (altimeter): 29.79 inches Hg (1009.0 mb)
Winds: from the NE (40 degrees) at 8 MPH (7 knots; 3.6 m/s)
Visibility: 6 or more miles (10+ km)
Ceiling: at least 12,000 feet AGL
Clouds: few clouds at 2000 feet AGL
Weather: no significant weather observed at this time

Array